sensor_id;sensor_type;location;lat;lon;timestamp;pressure;altitude;pressure_sealevel;temperature;humidity
60479;BME280;46321;48.398;11.754;2023-07-31T00:02:06;96698.13;;;16.02;66.45
60479;BME280;46321;48.398;11.754;2023-07-31T00:04:31;96708.00;;;16.01;65.93
60479;BME280;46321;48.398;11.754;2023-07-31T00:06:57;96700.16;;;16.00;66.42
60479;BME280;46321;48.398;11.754;2023-07-31T00:09:22;96706.31;;;15.87;66.00
60479;BME280;46321;48.398;11.754;2023-07-31T00:11:47;96704.09;;;15.90;65.90
60479;BME280;46321;48.398;11.754;2023-07-31T00:16:40;96712.91;;;15.91;66.49
60479;BME280;46321;48.398;11.754;2023-07-31T00:19:05;96711.44;;;15.88;66.47
60479;BME280;46321;48.398;11.754;2023-07-31T00:21:30;96705.09;;;15.83;66.90
60479;BME280;46321;48.398;11.754;2023-07-31T00:23:55;96707.97;;;15.74;67.94
60479;BME280;46321;48.398;11.754;2023-07-31T00:26:21;96705.69;;;15.71;67.40
60479;BME280;46321;48.398;11.754;2023-07-31T00:28:46;96708.13;;;15.66;67.70
60479;BME280;46321;48.398;11.754;2023-07-31T00:31:11;96709.59;;;15.68;67.16
60479;BME280;46321;48.398;11.754;2023-07-31T00:33:37;96710.59;;;15.61;68.18
60479;BME280;46321;48.398;11.754;2023-07-31T00:36:02;96703.00;;;15.64;67.75
60479;BME280;46321;48.398;11.754;2023-07-31T00:38:28;96694.19;;;15.64;67.96
60479;BME280;46321;48.398;11.754;2023-07-31T00:40:53;96704.66;;;15.59;68.83
60479;BME280;46321;48.398;11.754;2023-07-31T00:43:18;96702.16;;;15.57;68.08
60479;BME280;46321;48.398;11.754;2023-07-31T00:45:43;96708.94;;;15.53;69.27
60479;BME280;46321;48.398;11.754;2023-07-31T00:48:09;96699.06;;;15.47;69.76
60479;BME280;46321;48.398;11.754;2023-07-31T00:50:34;96700.91;;;15.39;70.25
60479;BME280;46321;48.398;11.754;2023-07-31T00:53:00;96693.09;;;15.38;70.39
60479;BME280;46321;48.398;11.754;2023-07-31T00:55:25;96683.25;;;15.38;69.37
60479;BME280;46321;48.398;11.754;2023-07-31T00:57:50;96689.19;;;15.33;69.83
60479;BME280;46321;48.398;11.754;2023-07-31T01:00:17;96700.06;;;15.32;70.41
60479;BME280;46321;48.398;11.754;2023-07-31T01:02:43;96692.69;;;15.27;70.76
60479;BME280;46321;48.398;11.754;2023-07-31T01:05:08;96689.78;;;15.29;70.17
60479;BME280;46321;48.398;11.754;2023-07-31T01:07:55;96690.16;;;15.19;71.50
60479;BME280;46321;48.398;11.754;2023-07-31T01:12:46;96693.41;;;15.01;73.10
60479;BME280;46321;48.398;11.754;2023-07-31T01:15:12;96686.19;;;15.01;72.46
60479;BME280;46321;48.398;11.754;2023-07-31T01:17:40;96686.81;;;15.03;72.66
60479;BME280;46321;48.398;11.754;2023-07-31T01:20:06;96680.91;;;15.08;72.50
60479;BME280;46321;48.398;11.754;2023-07-31T01:27:59;96678.06;;;15.09;72.84
60479;BME280;46321;48.398;11.754;2023-07-31T01:30:28;96671.69;;;15.10;72.49
60479;BME280;46321;48.398;11.754;2023-07-31T01:32:55;96677.19;;;15.02;72.74
60479;BME280;46321;48.398;11.754;2023-07-31T01:35:21;96672.25;;;14.99;73.04
60479;BME280;46321;48.398;11.754;2023-07-31T01:37:46;96673.50;;;15.03;73.05
60479;BME280;46321;48.398;11.754;2023-07-31T01:40:11;96670.41;;;14.99;73.41
60479;BME280;46321;48.398;11.754;2023-07-31T01:42:36;96673.28;;;14.98;73.52
60479;BME280;46321;48.398;11.754;2023-07-31T01:45:02;96668.78;;;14.98;72.99
60479;BME280;46321;48.398;11.754;2023-07-31T01:47:27;96667.72;;;14.93;73.73
60479;BME280;46321;48.398;11.754;2023-07-31T01:49:52;96663.00;;;14.88;73.88
60479;BME280;46321;48.398;11.754;2023-07-31T01:52:17;96656.44;;;14.91;74.40
60479;BME280;46321;48.398;11.754;2023-07-31T01:54:42;96664.84;;;14.94;73.53
60479;BME280;46321;48.398;11.754;2023-07-31T01:57:07;96659.72;;;14.93;72.89
60479;BME280;46321;48.398;11.754;2023-07-31T01:59:33;96666.88;;;14.85;72.69
60479;BME280;46321;48.398;11.754;2023-07-31T02:01:58;96660.53;;;14.86;72.88
60479;BME280;46321;48.398;11.754;2023-07-31T02:04:23;96663.81;;;14.88;73.22
60479;BME280;46321;48.398;11.754;2023-07-31T02:06:48;96657.88;;;14.86;73.22
60479;BME280;46321;48.398;11.754;2023-07-31T02:09:13;96653.91;;;14.75;74.31
60479;BME280;46321;48.398;11.754;2023-07-31T02:11:39;96656.38;;;14.84;73.77
60479;BME280;46321;48.398;11.754;2023-07-31T02:14:04;96654.38;;;14.86;73.42
60479;BME280;46321;48.398;11.754;2023-07-31T02:16:29;96645.94;;;14.82;73.69
60479;BME280;46321;48.398;11.754;2023-07-31T02:18:54;96647.97;;;14.80;73.52
60479;BME280;46321;48.398;11.754;2023-07-31T02:21:19;96643.94;;;14.84;73.30
60479;BME280;46321;48.398;11.754;2023-07-31T02:23:44;96636.56;;;14.86;73.34
60479;BME280;46321;48.398;11.754;2023-07-31T02:26:09;96635.28;;;14.82;73.15
60479;BME280;46321;48.398;11.754;2023-07-31T02:28:35;96638.16;;;14.81;73.24
60479;BME280;46321;48.398;11.754;2023-07-31T02:31:00;96632.38;;;14.77;73.43
60479;BME280;46321;48.398;11.754;2023-07-31T02:33:25;96629.31;;;14.73;73.24
60479;BME280;46321;48.398;11.754;2023-07-31T02:35:50;96630.09;;;14.67;73.38
60479;BME280;46321;48.398;11.754;2023-07-31T02:38:15;96627.22;;;14.69;73.33
60479;BME280;46321;48.398;11.754;2023-07-31T02:40:41;96624.31;;;14.63;73.17
60479;BME280;46321;48.398;11.754;2023-07-31T02:43:06;96624.75;;;14.60;73.53
60479;BME280;46321;48.398;11.754;2023-07-31T02:45:31;96628.03;;;14.62;73.63
60479;BME280;46321;48.398;11.754;2023-07-31T02:47:57;96622.06;;;14.60;73.28
60479;BME280;46321;48.398;11.754;2023-07-31T02:50:22;96618.78;;;14.58;73.31
60479;BME280;46321;48.398;11.754;2023-07-31T02:52:47;96615.69;;;14.54;74.06
60479;BME280;46321;48.398;11.754;2023-07-31T02:55:12;96618.56;;;14.53;73.91
60479;BME280;46321;48.398;11.754;2023-07-31T02:57:37;96615.03;;;14.46;74.66
60479;BME280;46321;48.398;11.754;2023-07-31T03:00:03;96614.78;;;14.40;74.80
60479;BME280;46321;48.398;11.754;2023-07-31T03:02:31;96619.91;;;14.35;74.16
60479;BME280;46321;48.398;11.754;2023-07-31T03:04:56;96609.41;;;14.27;75.63
60479;BME280;46321;48.398;11.754;2023-07-31T03:07:21;96614.13;;;14.31;75.30
60479;BME280;46321;48.398;11.754;2023-07-31T03:09:46;96608.16;;;14.29;75.69
60479;BME280;46321;48.398;11.754;2023-07-31T03:12:11;96606.09;;;14.25;75.67
60479;BME280;46321;48.398;11.754;2023-07-31T03:14:36;96609.53;;;14.18;75.86
60479;BME280;46321;48.398;11.754;2023-07-31T03:17:02;96608.75;;;14.18;75.46
60479;BME280;46321;48.398;11.754;2023-07-31T03:19:29;96611.59;;;14.16;75.69
60479;BME280;46321;48.398;11.754;2023-07-31T03:21:54;96614.88;;;14.18;75.62
60479;BME280;46321;48.398;11.754;2023-07-31T03:24:20;96607.03;;;14.10;75.63
60479;BME280;46321;48.398;11.754;2023-07-31T03:26:45;96609.06;;;14.08;75.92
60479;BME280;46321;48.398;11.754;2023-07-31T03:29:10;96615.44;;;14.14;75.76
60479;BME280;46321;48.398;11.754;2023-07-31T03:31:35;96607.28;;;14.15;75.70
60479;BME280;46321;48.398;11.754;2023-07-31T03:34:00;96614.25;;;14.16;75.63
60479;BME280;46321;48.398;11.754;2023-07-31T03:36:26;96617.91;;;14.08;76.67
60479;BME280;46321;48.398;11.754;2023-07-31T03:38:51;96613.56;;;14.07;77.18
60479;BME280;46321;48.398;11.754;2023-07-31T03:41:17;96609.72;;;14.10;76.32
60479;BME280;46321;48.398;11.754;2023-07-31T03:43:43;96613.78;;;14.06;76.75
60479;BME280;46321;48.398;11.754;2023-07-31T03:46:08;96614.41;;;14.08;76.25
60479;BME280;46321;48.398;11.754;2023-07-31T03:48:33;96619.16;;;14.13;75.73
60479;BME280;46321;48.398;11.754;2023-07-31T03:50:58;96619.97;;;14.13;76.09
60479;BME280;46321;48.398;11.754;2023-07-31T03:53:23;96619.97;;;14.13;76.00
60479;BME280;46321;48.398;11.754;2023-07-31T03:55:49;96623.06;;;14.17;75.99
60479;BME280;46321;48.398;11.754;2023-07-31T03:58:14;96625.28;;;14.13;77.08
60479;BME280;46321;48.398;11.754;2023-07-31T04:00:39;96613.81;;;14.13;77.86
60479;BME280;46321;48.398;11.754;2023-07-31T04:03:05;96623.25;;;14.15;77.64
60479;BME280;46321;48.398;11.754;2023-07-31T04:05:31;96617.94;;;14.15;77.34
60479;BME280;46321;48.398;11.754;2023-07-31T04:07:57;96616.53;;;14.19;77.63
60479;BME280;46321;48.398;11.754;2023-07-31T04:10:22;96607.34;;;14.22;77.81
60479;BME280;46321;48.398;11.754;2023-07-31T04:12:47;96612.06;;;14.27;77.35
60479;BME280;46321;48.398;11.754;2023-07-31T04:15:13;96609.00;;;14.30;77.58
60479;BME280;46321;48.398;11.754;2023-07-31T04:17:38;96607.53;;;14.27;77.97
60479;BME280;46321;48.398;11.754;2023-07-31T04:20:03;96604.72;;;14.29;78.17
60479;BME280;46321;48.398;11.754;2023-07-31T04:22:28;96604.31;;;14.32;77.08
60479;BME280;46321;48.398;11.754;2023-07-31T04:24:54;96609.25;;;14.35;77.77
60479;BME280;46321;48.398;11.754;2023-07-31T04:27:19;96608.03;;;14.38;77.19
60479;BME280;46321;48.398;11.754;2023-07-31T04:29:44;96606.78;;;14.40;77.08
60479;BME280;46321;48.398;11.754;2023-07-31T04:32:12;96598.38;;;14.37;77.84
60479;BME280;46321;48.398;11.754;2023-07-31T04:34:37;96598.63;;;14.42;77.59
60479;BME280;46321;48.398;11.754;2023-07-31T04:37:03;96605.63;;;14.50;77.40
60479;BME280;46321;48.398;11.754;2023-07-31T04:39:28;96601.53;;;14.54;77.49
60479;BME280;46321;48.398;11.754;2023-07-31T04:41:53;96604.03;;;14.56;77.66
60479;BME280;46321;48.398;11.754;2023-07-31T04:44:18;96607.94;;;14.60;78.18
60479;BME280;46321;48.398;11.754;2023-07-31T04:46:43;96603.66;;;14.72;77.98
60479;BME280;46321;48.398;11.754;2023-07-31T04:49:08;96596.59;;;14.86;77.57
60479;BME280;46321;48.398;11.754;2023-07-31T04:51:34;96600.50;;;14.97;77.84
60479;BME280;46321;48.398;11.754;2023-07-31T04:53:59;96595.81;;;15.13;77.52
60479;BME280;46321;48.398;11.754;2023-07-31T04:56:24;96593.41;;;15.25;77.38
60479;BME280;46321;48.398;11.754;2023-07-31T04:58:49;96589.91;;;15.31;76.70
60479;BME280;46321;48.398;11.754;2023-07-31T05:01:14;96589.94;;;15.38;76.40
60479;BME280;46321;48.398;11.754;2023-07-31T05:03:39;96591.38;;;15.48;75.72
60479;BME280;46321;48.398;11.754;2023-07-31T05:06:05;96594.84;;;15.55;74.88
60479;BME280;46321;48.398;11.754;2023-07-31T05:08:30;96590.13;;;15.64;73.44
60479;BME280;46321;48.398;11.754;2023-07-31T05:10:55;96582.94;;;15.71;72.99
60479;BME280;46321;48.398;11.754;2023-07-31T05:13:20;96592.00;;;15.84;72.82
60479;BME280;46321;48.398;11.754;2023-07-31T05:15:46;96581.69;;;15.94;72.94
60479;BME280;46321;48.398;11.754;2023-07-31T05:18:11;96582.94;;;16.05;72.93
60479;BME280;46321;48.398;11.754;2023-07-31T05:20:36;96590.94;;;16.19;73.04
60479;BME280;46321;48.398;11.754;2023-07-31T05:23:01;96579.81;;;16.29;72.43
60479;BME280;46321;48.398;11.754;2023-07-31T05:25:27;96585.53;;;16.39;72.68
60479;BME280;46321;48.398;11.754;2023-07-31T05:27:52;96588.81;;;16.48;71.49
60479;BME280;46321;48.398;11.754;2023-07-31T05:30:17;96590.38;;;16.63;71.35
60479;BME280;46321;48.398;11.754;2023-07-31T05:32:42;96586.81;;;16.76;70.79
60479;BME280;46321;48.398;11.754;2023-07-31T05:35:07;96587.41;;;16.85;70.38
60479;BME280;46321;48.398;11.754;2023-07-31T05:37:33;96598.84;;;16.99;70.53
60479;BME280;46321;48.398;11.754;2023-07-31T05:39:58;96592.59;;;17.12;69.61
60479;BME280;46321;48.398;11.754;2023-07-31T05:42:23;96593.00;;;17.22;69.17
60479;BME280;46321;48.398;11.754;2023-07-31T05:44:48;96584.06;;;17.35;69.61
60479;BME280;46321;48.398;11.754;2023-07-31T05:47:13;96585.59;;;17.50;68.70
60479;BME280;46321;48.398;11.754;2023-07-31T05:49:39;96589.41;;;17.61;68.38
60479;BME280;46321;48.398;11.754;2023-07-31T05:52:04;96585.72;;;17.88;68.47
60479;BME280;46321;48.398;11.754;2023-07-31T05:54:29;96581.69;;;17.97;67.51
60479;BME280;46321;48.398;11.754;2023-07-31T05:56:54;96580.44;;;18.00;66.61
60479;BME280;46321;48.398;11.754;2023-07-31T05:59:20;96584.13;;;18.05;66.29
60479;BME280;46321;48.398;11.754;2023-07-31T06:01:45;96588.59;;;18.12;66.12
60479;BME280;46321;48.398;11.754;2023-07-31T06:04:10;96585.91;;;18.12;66.24
60479;BME280;46321;48.398;11.754;2023-07-31T06:06:35;96593.09;;;18.18;65.96
60479;BME280;46321;48.398;11.754;2023-07-31T06:09:00;96595.31;;;18.21;66.53
60479;BME280;46321;48.398;11.754;2023-07-31T06:11:25;96589.38;;;18.19;65.63
60479;BME280;46321;48.398;11.754;2023-07-31T06:13:51;96586.22;;;18.22;66.09
60479;BME280;46321;48.398;11.754;2023-07-31T06:16:16;96584.31;;;18.29;66.39
60479;BME280;46321;48.398;11.754;2023-07-31T06:18:42;96588.19;;;18.34;66.54
60479;BME280;46321;48.398;11.754;2023-07-31T06:21:07;96588.34;;;18.39;66.68
60479;BME280;46321;48.398;11.754;2023-07-31T06:23:32;96594.66;;;18.45;67.11
60479;BME280;46321;48.398;11.754;2023-07-31T06:25:57;96587.38;;;18.52;67.04
60479;BME280;46321;48.398;11.754;2023-07-31T06:28:29;96586.91;;;18.55;66.11
60479;BME280;46321;48.398;11.754;2023-07-31T06:30:55;96585.19;;;18.61;66.54
60479;BME280;46321;48.398;11.754;2023-07-31T06:33:20;96585.56;;;18.64;66.29
60479;BME280;46321;48.398;11.754;2023-07-31T06:35:45;96578.94;;;18.67;65.84
60479;BME280;46321;48.398;11.754;2023-07-31T06:38:10;96584.13;;;18.81;65.19
60479;BME280;46321;48.398;11.754;2023-07-31T06:40:36;96580.78;;;18.85;64.07
60479;BME280;46321;48.398;11.754;2023-07-31T06:43:01;96583.91;;;18.82;63.46
60479;BME280;46321;48.398;11.754;2023-07-31T06:45:32;96581.00;;;18.84;61.92
60479;BME280;46321;48.398;11.754;2023-07-31T06:47:57;96580.22;;;18.95;62.48
60479;BME280;46321;48.398;11.754;2023-07-31T06:50:26;96579.78;;;18.98;63.55
60479;BME280;46321;48.398;11.754;2023-07-31T06:52:51;96572.66;;;19.04;63.54
60479;BME280;46321;48.398;11.754;2023-07-31T06:55:17;96572.66;;;19.04;62.53
60479;BME280;46321;48.398;11.754;2023-07-31T06:57:45;96565.22;;;19.06;63.26
60479;BME280;46321;48.398;11.754;2023-07-31T07:00:11;96563.50;;;19.12;63.11
60479;BME280;46321;48.398;11.754;2023-07-31T07:02:36;96560.22;;;19.10;62.69
60479;BME280;46321;48.398;11.754;2023-07-31T07:05:01;96557.03;;;19.01;61.77
60479;BME280;46321;48.398;11.754;2023-07-31T07:07:27;96564.69;;;19.16;62.09
60479;BME280;46321;48.398;11.754;2023-07-31T07:09:52;96567.03;;;19.25;61.82
60479;BME280;46321;48.398;11.754;2023-07-31T07:12:18;96567.44;;;19.09;61.88
60479;BME280;46321;48.398;11.754;2023-07-31T07:14:43;96565.66;;;19.22;61.88
60479;BME280;46321;48.398;11.754;2023-07-31T07:17:10;96563.13;;;19.39;61.21
60479;BME280;46321;48.398;11.754;2023-07-31T07:19:36;96571.41;;;19.50;61.29
60479;BME280;46321;48.398;11.754;2023-07-31T07:22:01;96563.84;;;19.47;60.94
60479;BME280;46321;48.398;11.754;2023-07-31T07:24:27;96577.38;;;19.52;61.29
60479;BME280;46321;48.398;11.754;2023-07-31T07:26:52;96568.66;;;19.68;60.31
60479;BME280;46321;48.398;11.754;2023-07-31T07:29:17;96570.03;;;19.83;60.78
60479;BME280;46321;48.398;11.754;2023-07-31T07:31:42;96572.50;;;19.97;59.81
60479;BME280;46321;48.398;11.754;2023-07-31T07:34:07;96562.34;;;19.99;59.20
60479;BME280;46321;48.398;11.754;2023-07-31T07:36:32;96560.81;;;20.03;59.55
60479;BME280;46321;48.398;11.754;2023-07-31T07:38:58;96557.09;;;20.04;59.16
60479;BME280;46321;48.398;11.754;2023-07-31T07:41:23;96557.44;;;20.08;59.17
60479;BME280;46321;48.398;11.754;2023-07-31T07:43:48;96547.75;;;20.19;59.08
60479;BME280;46321;48.398;11.754;2023-07-31T07:46:13;96549.13;;;20.33;59.30
60479;BME280;46321;48.398;11.754;2023-07-31T07:48:39;96552.59;;;20.46;58.94
60479;BME280;46321;48.398;11.754;2023-07-31T07:51:04;96545.53;;;20.69;59.34
60479;BME280;46321;48.398;11.754;2023-07-31T07:53:29;96538.91;;;20.89;58.90
60479;BME280;46321;48.398;11.754;2023-07-31T07:55:54;96546.13;;;21.00;56.63
60479;BME280;46321;48.398;11.754;2023-07-31T07:58:19;96538.69;;;21.37;57.89
60479;BME280;46321;48.398;11.754;2023-07-31T08:00:51;96529.28;;;21.74;57.37
60479;BME280;46321;48.398;11.754;2023-07-31T08:03:16;96530.19;;;21.97;55.71
60479;BME280;46321;48.398;11.754;2023-07-31T08:05:42;96527.75;;;22.18;53.34
60479;BME280;46321;48.398;11.754;2023-07-31T08:08:07;96534.34;;;22.27;52.21
60479;BME280;46321;48.398;11.754;2023-07-31T08:10:32;96529.22;;;22.48;53.62
60479;BME280;46321;48.398;11.754;2023-07-31T08:12:58;96528.84;;;22.90;52.65
60479;BME280;46321;48.398;11.754;2023-07-31T08:15:23;96532.22;;;23.02;50.61
60479;BME280;46321;48.398;11.754;2023-07-31T08:17:48;96530.44;;;22.85;50.25
60479;BME280;46321;48.398;11.754;2023-07-31T08:20:13;96534.06;;;22.96;49.27
60479;BME280;46321;48.398;11.754;2023-07-31T08:22:39;96530.22;;;23.20;49.21
60479;BME280;46321;48.398;11.754;2023-07-31T08:25:05;96524.63;;;23.27;48.11
60479;BME280;46321;48.398;11.754;2023-07-31T08:27:31;96529.88;;;23.39;48.33
60479;BME280;46321;48.398;11.754;2023-07-31T08:29:56;96535.53;;;23.70;48.98
60479;BME280;46321;48.398;11.754;2023-07-31T08:32:22;96535.66;;;23.91;48.14
60479;BME280;46321;48.398;11.754;2023-07-31T08:34:47;96520.06;;;24.09;47.55
60479;BME280;46321;48.398;11.754;2023-07-31T08:37:12;96532.72;;;23.98;46.51
60479;BME280;46321;48.398;11.754;2023-07-31T08:39:37;96519.97;;;23.93;44.90
60479;BME280;46321;48.398;11.754;2023-07-31T08:42:07;96527.75;;;23.79;45.06
60479;BME280;46321;48.398;11.754;2023-07-31T08:44:32;96527.25;;;23.49;45.35
60479;BME280;46321;48.398;11.754;2023-07-31T08:46:59;96528.50;;;23.36;46.05
60479;BME280;46321;48.398;11.754;2023-07-31T08:49:25;96535.06;;;23.18;45.65
60479;BME280;46321;48.398;11.754;2023-07-31T08:51:50;96545.19;;;23.05;46.73
60479;BME280;46321;48.398;11.754;2023-07-31T08:54:17;96537.69;;;23.07;45.44
60479;BME280;46321;48.398;11.754;2023-07-31T08:56:42;96524.50;;;23.11;45.23
60479;BME280;46321;48.398;11.754;2023-07-31T08:59:07;96514.31;;;22.91;44.92
60479;BME280;46321;48.398;11.754;2023-07-31T09:01:35;96528.66;;;22.69;45.99
60479;BME280;46321;48.398;11.754;2023-07-31T09:04:02;96517.88;;;22.46;46.50
60479;BME280;46321;48.398;11.754;2023-07-31T09:06:29;96525.44;;;22.49;46.76
60479;BME280;46321;48.398;11.754;2023-07-31T09:08:55;96516.38;;;22.33;47.56
60479;BME280;46321;48.398;11.754;2023-07-31T09:11:20;96527.63;;;22.30;47.80
60479;BME280;46321;48.398;11.754;2023-07-31T09:13:46;96527.75;;;22.18;47.71
60479;BME280;46321;48.398;11.754;2023-07-31T09:16:11;96536.09;;;22.16;47.81
60479;BME280;46321;48.398;11.754;2023-07-31T09:18:52;96517.59;;;22.03;47.50
60479;BME280;46321;48.398;11.754;2023-07-31T09:21:18;96509.56;;;21.68;48.55
60479;BME280;46321;48.398;11.754;2023-07-31T09:23:44;96518.25;;;21.76;47.17
60479;BME280;46321;48.398;11.754;2023-07-31T09:26:10;96521.84;;;21.64;46.50
60479;BME280;46321;48.398;11.754;2023-07-31T09:28:35;96519.75;;;21.49;47.36
60479;BME280;46321;48.398;11.754;2023-07-31T09:31:00;96516.84;;;21.50;46.36
60479;BME280;46321;48.398;11.754;2023-07-31T09:33:25;96506.91;;;21.73;46.23
60479;BME280;46321;48.398;11.754;2023-07-31T09:35:50;96512.91;;;21.58;47.60
60479;BME280;46321;48.398;11.754;2023-07-31T09:38:16;96513.78;;;21.64;47.20
60479;BME280;46321;48.398;11.754;2023-07-31T09:40:44;96517.97;;;21.55;47.69
60479;BME280;46321;48.398;11.754;2023-07-31T09:43:11;96510.75;;;21.78;48.41
60479;BME280;46321;48.398;11.754;2023-07-31T09:45:37;96506.13;;;21.56;47.14
60479;BME280;46321;48.398;11.754;2023-07-31T09:48:03;96505.59;;;21.76;46.69
60479;BME280;46321;48.398;11.754;2023-07-31T09:50:29;96500.16;;;21.88;46.44
60479;BME280;46321;48.398;11.754;2023-07-31T09:52:54;96506.44;;;22.61;45.09
60479;BME280;46321;48.398;11.754;2023-07-31T09:55:20;96489.25;;;22.95;45.14
60479;BME280;46321;48.398;11.754;2023-07-31T09:57:48;96491.13;;;23.55;45.28
60479;BME280;46321;48.398;11.754;2023-07-31T10:00:15;96491.91;;;23.94;42.26
60479;BME280;46321;48.398;11.754;2023-07-31T10:02:40;96475.09;;;23.87;41.83
60479;BME280;46321;48.398;11.754;2023-07-31T10:05:06;96474.25;;;24.40;42.04
60479;BME280;46321;48.398;11.754;2023-07-31T10:07:33;96463.31;;;25.25;41.55
60479;BME280;46321;48.398;11.754;2023-07-31T10:10:01;96468.69;;;25.62;39.30
60479;BME280;46321;48.398;11.754;2023-07-31T10:12:27;96456.25;;;25.30;38.86
60479;BME280;46321;48.398;11.754;2023-07-31T10:14:55;96463.31;;;25.15;38.95
60479;BME280;46321;48.398;11.754;2023-07-31T10:17:24;96441.34;;;24.96;40.21
60479;BME280;46321;48.398;11.754;2023-07-31T10:19:49;96439.22;;;25.24;41.17
60479;BME280;46321;48.398;11.754;2023-07-31T10:22:15;96444.06;;;25.27;40.00
60479;BME280;46321;48.398;11.754;2023-07-31T10:24:41;96427.81;;;25.48;39.63
60479;BME280;46321;48.398;11.754;2023-07-31T10:27:07;96425.53;;;25.97;39.79
60479;BME280;46321;48.398;11.754;2023-07-31T10:29:33;96423.94;;;25.91;39.23
60479;BME280;46321;48.398;11.754;2023-07-31T10:31:59;96424.94;;;26.11;38.70
60479;BME280;46321;48.398;11.754;2023-07-31T10:34:24;96427.63;;;26.16;38.95
60479;BME280;46321;48.398;11.754;2023-07-31T10:36:50;96426.56;;;26.62;38.66
60479;BME280;46321;48.398;11.754;2023-07-31T10:39:36;96428.53;;;26.57;36.89
60479;BME280;46321;48.398;11.754;2023-07-31T10:42:13;96423.19;;;26.41;38.27
60479;BME280;46321;48.398;11.754;2023-07-31T10:44:43;96424.78;;;26.47;38.05
60479;BME280;46321;48.398;11.754;2023-07-31T10:47:08;96433.66;;;26.02;38.43
60479;BME280;46321;48.398;11.754;2023-07-31T10:49:33;96430.06;;;26.12;38.54
60479;BME280;46321;48.398;11.754;2023-07-31T10:51:58;96424.31;;;26.24;38.69
60479;BME280;46321;48.398;11.754;2023-07-31T10:54:24;96432.22;;;26.21;38.36
60479;BME280;46321;48.398;11.754;2023-07-31T10:56:52;96429.97;;;25.51;39.55
60479;BME280;46321;48.398;11.754;2023-07-31T10:59:18;96420.06;;;26.07;38.80
60479;BME280;46321;48.398;11.754;2023-07-31T11:01:55;96413.69;;;26.38;38.44
60479;BME280;46321;48.398;11.754;2023-07-31T11:04:26;96415.56;;;26.38;38.86
60479;BME280;46321;48.398;11.754;2023-07-31T11:06:58;96413.91;;;25.81;39.18
60479;BME280;46321;48.398;11.754;2023-07-31T11:09:24;96407.78;;;25.28;39.47
60479;BME280;46321;48.398;11.754;2023-07-31T11:11:52;96409.44;;;25.29;38.92
60479;BME280;46321;48.398;11.754;2023-07-31T11:14:18;96398.25;;;25.57;39.16
60479;BME280;46321;48.398;11.754;2023-07-31T11:16:43;96399.56;;;25.80;39.77
60479;BME280;46321;48.398;11.754;2023-07-31T11:19:08;96392.88;;;25.46;39.34
60479;BME280;46321;48.398;11.754;2023-07-31T11:21:34;96397.44;;;25.67;39.37
60479;BME280;46321;48.398;11.754;2023-07-31T11:23:59;96387.69;;;25.60;39.71
60479;BME280;46321;48.398;11.754;2023-07-31T11:26:24;96376.28;;;25.58;39.14
60479;BME280;46321;48.398;11.754;2023-07-31T11:28:50;96373.63;;;25.48;39.41
60479;BME280;46321;48.398;11.754;2023-07-31T11:31:15;96369.81;;;25.54;40.11
60479;BME280;46321;48.398;11.754;2023-07-31T11:33:41;96373.66;;;25.32;41.08
60479;BME280;46321;48.398;11.754;2023-07-31T11:36:10;96369.84;;;25.38;40.88
60479;BME280;46321;48.398;11.754;2023-07-31T11:38:39;96368.25;;;25.32;41.05
60479;BME280;46321;48.398;11.754;2023-07-31T11:41:04;96348.78;;;25.14;40.57
60479;BME280;46321;48.398;11.754;2023-07-31T11:43:30;96350.31;;;25.52;42.06
60479;BME280;46321;48.398;11.754;2023-07-31T11:45:56;96345.94;;;25.72;40.35
60479;BME280;46321;48.398;11.754;2023-07-31T11:48:22;96343.28;;;25.51;39.51
60479;BME280;46321;48.398;11.754;2023-07-31T11:50:48;96339.22;;;25.43;39.78
60479;BME280;46321;48.398;11.754;2023-07-31T11:53:14;96334.38;;;25.40;40.76
60479;BME280;46321;48.398;11.754;2023-07-31T11:55:40;96324.91;;;25.32;40.58
60479;BME280;46321;48.398;11.754;2023-07-31T11:58:05;96322.75;;;25.34;41.77
60479;BME280;46321;48.398;11.754;2023-07-31T12:00:31;96325.69;;;25.43;42.72
60479;BME280;46321;48.398;11.754;2023-07-31T12:02:56;96315.97;;;25.42;40.70
60479;BME280;46321;48.398;11.754;2023-07-31T12:05:21;96309.44;;;25.43;41.31
60479;BME280;46321;48.398;11.754;2023-07-31T12:07:49;96298.84;;;25.52;39.90
60479;BME280;46321;48.398;11.754;2023-07-31T12:10:30;96300.19;;;25.55;41.32
60479;BME280;46321;48.398;11.754;2023-07-31T12:13:03;96304.09;;;25.22;41.12
60479;BME280;46321;48.398;11.754;2023-07-31T12:15:35;96294.06;;;25.28;40.26
60479;BME280;46321;48.398;11.754;2023-07-31T12:18:03;96289.09;;;25.51;40.29
60479;BME280;46321;48.398;11.754;2023-07-31T12:20:29;96295.56;;;25.60;41.24
60479;BME280;46321;48.398;11.754;2023-07-31T12:22:55;96290.41;;;25.59;39.52
60479;BME280;46321;48.398;11.754;2023-07-31T12:25:21;96283.22;;;25.23;39.78
60479;BME280;46321;48.398;11.754;2023-07-31T12:27:46;96282.41;;;25.33;39.82
60479;BME280;46321;48.398;11.754;2023-07-31T12:30:31;96275.59;;;25.41;39.20
60479;BME280;46321;48.398;11.754;2023-07-31T12:32:56;96284.31;;;25.27;40.17
60479;BME280;46321;48.398;11.754;2023-07-31T12:35:21;96282.41;;;25.27;40.76
60479;BME280;46321;48.398;11.754;2023-07-31T12:37:47;96272.88;;;25.46;40.43
60479;BME280;46321;48.398;11.754;2023-07-31T12:40:12;96274.34;;;25.12;40.92
60479;BME280;46321;48.398;11.754;2023-07-31T12:42:39;96272.09;;;25.35;41.03
60479;BME280;46321;48.398;11.754;2023-07-31T12:45:04;96276.91;;;25.54;41.41
60479;BME280;46321;48.398;11.754;2023-07-31T12:47:29;96277.53;;;25.35;40.35
60479;BME280;46321;48.398;11.754;2023-07-31T12:49:55;96275.41;;;25.16;40.45
60479;BME280;46321;48.398;11.754;2023-07-31T12:52:20;96262.03;;;25.46;40.15
60479;BME280;46321;48.398;11.754;2023-07-31T12:54:45;96257.72;;;25.39;39.26